createdAt,value
2023-01-29T00:04:10.079Z,76.5
2023-01-29T00:14:10.221Z,76
2023-01-29T00:24:10.119Z,76
2023-01-29T00:34:10.173Z,76
2023-01-29T00:44:10.063Z,76
2023-01-29T00:54:10.200Z,76
2023-01-29T01:04:00.501Z,76
2023-01-29T01:14:00.238Z,76
2023-01-29T01:24:00.368Z,76
2023-01-29T01:34:00.280Z,76
2023-01-29T01:44:00.308Z,76
2023-01-29T01:54:00.238Z,76
2023-01-29T02:04:00.371Z,76
2023-01-29T02:14:00.272Z,76
2023-01-29T02:24:00.492Z,76
2023-01-29T02:34:00.286Z,76
2023-01-29T02:44:00.340Z,76
2023-01-29T02:54:00.469Z,76
2023-01-29T03:04:00.351Z,76
2023-01-29T03:14:00.461Z,76.5
2023-01-29T03:24:00.314Z,76.5
2023-01-29T03:34:00.461Z,76.5
2023-01-29T03:44:00.337Z,76.5
2023-01-29T03:54:00.424Z,76.5
2023-01-29T04:04:00.570Z,76
2023-01-29T04:14:00.420Z,76
2023-01-29T04:24:00.567Z,76
2023-01-29T04:34:00.437Z,76
2023-01-29T04:44:00.526Z,76
2023-01-29T04:54:00.419Z,66.5
2023-01-29T05:04:00.522Z,62
2023-01-29T05:14:00.392Z,65
2023-01-29T05:24:00.576Z,66.5
2023-01-29T05:34:00.436Z,68.5
2023-01-29T05:44:00.520Z,70
2023-01-29T05:54:00.621Z,59.5
2023-01-29T06:04:00.508Z,59.5
2023-01-29T06:14:00.622Z,62
2023-01-29T06:24:00.571Z,64.5
2023-01-29T06:34:00.648Z,67
2023-01-29T06:44:00.490Z,68
2023-01-29T06:54:00.584Z,56.5
2023-01-29T07:04:00.727Z,59
2023-01-29T07:14:00.620Z,62
2023-01-29T07:24:00.723Z,64
2023-01-29T07:34:00.589Z,66
2023-01-29T07:44:00.689Z,62
2023-01-29T07:54:00.579Z,55.5
2023-01-29T08:04:00.714Z,58.5
2023-01-29T08:14:00.597Z,62
2023-01-29T08:34:00.605Z,66
2023-01-29T08:44:00.695Z,67.5
2023-01-29T08:54:00.777Z,68.5
2023-01-29T09:04:00.690Z,61
2023-01-29T09:14:00.791Z,57.5
2023-01-29T09:24:00.680Z,60
2023-01-29T09:34:00.782Z,63
2023-01-29T09:44:00.685Z,64.5
2023-01-29T09:54:00.786Z,67
2023-01-29T10:04:00.894Z,67.5
2023-01-29T10:14:01.105Z,68.5
2023-01-29T10:24:00.865Z,69
2023-01-29T10:34:02.690Z,70.5
2023-01-29T10:44:00.891Z,70.5
2023-01-29T10:54:00.892Z,71
2023-01-29T11:04:00.862Z,71
2023-01-29T11:14:00.765Z,71.5
2023-01-29T11:24:00.884Z,71.5
2023-01-29T11:34:00.829Z,72
2023-01-29T11:44:00.886Z,72
2023-01-29T11:54:00.993Z,72.5
2023-01-29T12:04:00.950Z,72.5
2023-01-29T12:14:01.005Z,73
2023-01-29T12:24:00.879Z,73
2023-01-29T12:34:01.180Z,73
2023-01-29T12:44:01.900Z,73
2023-01-29T12:54:00.970Z,73
2023-01-29T13:04:00.924Z,73
2023-01-29T13:14:01.007Z,73
2023-01-29T13:24:00.889Z,73
2023-01-29T13:34:00.997Z,73
2023-01-29T13:44:00.913Z,72.5
2023-01-29T13:54:01.002Z,60.5
2023-01-29T14:04:05.298Z,61
2023-01-29T14:14:01.015Z,65
2023-01-29T14:24:01.124Z,66.5
2023-01-29T14:34:00.993Z,68.5
2023-01-29T14:44:01.097Z,69
2023-01-29T14:54:00.980Z,70
2023-01-29T15:04:01.271Z,71
2023-01-29T15:14:01.088Z,72
2023-01-29T15:24:01.151Z,72.5
2023-01-29T15:34:01.036Z,72.5
2023-01-29T15:44:01.116Z,69
2023-01-29T15:54:01.038Z,61.5
2023-01-29T16:04:01.120Z,63.5
2023-01-29T16:14:01.030Z,66
2023-01-29T16:24:01.138Z,68
2023-01-29T16:34:01.026Z,69
2023-01-29T16:44:01.110Z,70.5
2023-01-29T16:54:01.234Z,71.5
2023-01-29T17:04:01.152Z,72.5
2023-01-29T17:14:01.206Z,65
2023-01-29T17:24:01.116Z,59.5
2023-01-29T17:34:01.736Z,62.5
2023-01-29T17:44:01.113Z,65.5
2023-01-29T17:54:01.363Z,67.5
2023-01-29T18:04:01.382Z,69.5
2023-01-29T18:14:01.384Z,70.5
2023-01-29T18:24:01.344Z,61.5
2023-01-29T18:34:01.248Z,58
2023-01-29T18:44:01.408Z,62
2023-01-29T18:54:01.217Z,65
2023-01-29T19:04:01.319Z,67
2023-01-29T19:14:01.218Z,68
2023-01-29T19:24:01.321Z,63.5
2023-01-29T19:34:01.220Z,57.5
2023-01-29T19:44:01.312Z,61
2023-01-29T19:54:01.434Z,63.5
2023-01-29T20:04:01.322Z,66
2023-01-29T20:14:01.420Z,68
2023-01-29T20:24:01.316Z,69.5
2023-01-29T20:34:01.396Z,70.5
2023-01-29T20:44:01.298Z,71.5
2023-01-29T20:54:01.443Z,72.5
2023-01-29T21:04:01.306Z,73
2023-01-29T21:14:01.398Z,73.5
2023-01-29T21:24:01.499Z,74
2023-01-29T21:34:01.383Z,74
2023-01-29T21:44:01.495Z,76
2023-01-29T21:54:01.388Z,76
2023-01-29T22:04:01.486Z,76
2023-01-29T22:14:01.386Z,76
2023-01-29T22:24:01.481Z,76
2023-01-29T22:34:01.582Z,76
2023-01-29T22:44:01.474Z,76
2023-01-29T22:54:01.581Z,76.5
2023-01-29T23:04:01.493Z,76.5
2023-01-29T23:14:01.582Z,76.5
2023-01-29T23:24:01.551Z,76.5
2023-01-29T23:34:01.580Z,76.5
2023-01-29T23:44:01.469Z,76
2023-01-29T23:54:01.494Z,76
